createdAt,value
2017-07-12T00:00:14.080Z,82.90
2017-07-12T00:02:43.128Z,83.16
2017-07-12T00:05:12.935Z,83.32
2017-07-12T00:07:42.785Z,83.54
2017-07-12T00:10:12.212Z,83.53
2017-07-12T00:12:41.286Z,83.13
2017-07-12T00:15:10.358Z,83.25
2017-07-12T00:17:39.463Z,83.21
2017-07-12T00:20:08.528Z,83.38
2017-07-12T00:22:37.623Z,83.18
2017-07-12T00:25:06.670Z,82.94
2017-07-12T00:27:35.731Z,82.91
2017-07-12T00:30:04.836Z,83.01
2017-07-12T00:32:33.896Z,82.94
2017-07-12T00:35:03.005Z,83.21
2017-07-12T00:37:32.058Z,83.10
2017-07-12T00:40:01.121Z,82.80
2017-07-12T00:42:30.784Z,82.90
2017-07-12T00:45:00.172Z,82.95
2017-07-12T00:47:29.249Z,82.68
2017-07-12T00:50:01.319Z,82.44
2017-07-12T00:52:30.380Z,82.53
2017-07-12T00:54:59.455Z,82.30
2017-07-12T00:57:29.267Z,82.33
2017-07-12T00:59:59.106Z,82.07
2017-07-12T01:02:28.922Z,82.09
2017-07-12T01:04:58.253Z,81.97
2017-07-12T01:07:27.351Z,81.60
2017-07-12T01:09:56.400Z,81.42
2017-07-12T01:12:25.470Z,81.62
2017-07-12T01:14:54.515Z,81.69
2017-07-12T01:17:23.617Z,81.54
2017-07-12T01:19:52.665Z,81.39
2017-07-12T01:22:21.704Z,81.80
2017-07-12T01:24:50.759Z,81.41
2017-07-12T01:27:20.828Z,81.42
2017-07-12T01:29:49.873Z,81.75
2017-07-12T01:32:19.706Z,81.35
2017-07-12T01:34:48.769Z,81.32
2017-07-12T01:37:18.602Z,81.54
2017-07-12T01:39:48.454Z,81.45
2017-07-12T01:42:17.524Z,81.46
2017-07-12T01:44:46.592Z,81.58
2017-07-12T01:47:15.648Z,81.83
2017-07-12T01:49:44.692Z,81.54
2017-07-12T01:52:13.764Z,81.24
2017-07-12T01:54:42.805Z,81.54
2017-07-12T01:57:11.857Z,81.54
2017-07-12T01:59:41.673Z,81.28
2017-07-12T02:02:10.757Z,81.65
2017-07-12T02:04:39.817Z,81.40
2017-07-12T02:07:08.876Z,81.57
2017-07-12T02:09:37.942Z,81.38
2017-07-12T02:12:06.969Z,81.41
2017-07-12T02:14:36.033Z,81.25
2017-07-12T02:17:05.105Z,81.28
2017-07-12T02:19:34.177Z,81.19
2017-07-12T02:22:03.256Z,81.25
2017-07-12T02:24:32.317Z,81.27
2017-07-12T02:27:01.722Z,81.31
2017-07-12T02:29:30.740Z,81.11
2017-07-12T02:31:59.819Z,81.38
2017-07-12T02:34:29.640Z,81.00
2017-07-12T02:36:58.710Z,81.26
2017-07-12T02:39:27.772Z,81.56
2017-07-12T02:41:56.872Z,81.61
2017-07-12T02:51:12.440Z,83.87
2017-07-12T02:53:42.273Z,83.53
2017-07-12T02:56:11.343Z,82.91
2017-07-12T02:58:41.170Z,83.23
2017-07-12T03:01:10.360Z,83.58
2017-07-12T03:03:39.508Z,83.55
2017-07-12T03:06:08.560Z,84.32
2017-07-12T03:08:37.603Z,84.51
2017-07-12T03:11:06.664Z,84.84
2017-07-12T03:13:35.738Z,84.76
2017-07-12T03:16:04.818Z,84.48
2017-07-12T03:18:33.863Z,84.54
2017-07-12T03:21:02.924Z,85.02
2017-07-12T03:23:32.758Z,85.17
2017-07-12T03:26:01.886Z,84.64
2017-07-12T03:28:30.943Z,85.43
2017-07-12T03:31:00.753Z,85.06
2017-07-12T03:33:29.809Z,84.57
2017-07-12T03:35:58.881Z,84.19
2017-07-12T03:38:27.932Z,84.06
2017-07-12T03:40:57.767Z,84.42
2017-07-12T03:43:26.810Z,84.93
2017-07-12T03:45:55.895Z,84.54
2017-07-12T03:48:24.949Z,84.50
2017-07-12T03:50:54.031Z,84.75
2017-07-12T03:53:23.085Z,84.60
2017-07-12T03:55:52.159Z,84.73
2017-07-12T03:58:21.231Z,84.51
2017-07-12T04:00:50.295Z,84.32
2017-07-12T04:03:20.133Z,84.34
2017-07-12T04:05:49.208Z,84.43
2017-07-12T04:08:19.857Z,84.49
2017-07-12T04:10:48.905Z,84.98
2017-07-12T04:13:17.970Z,84.70
2017-07-12T04:15:47.800Z,84.47
2017-07-12T04:18:16.889Z,84.62
2017-07-12T04:20:45.960Z,85.22
2017-07-12T04:23:15.023Z,84.69
2017-07-12T04:25:44.842Z,85.00
2017-07-12T04:28:13.904Z,84.69
2017-07-12T04:30:42.954Z,85.34
2017-07-12T04:33:12.021Z,85.28
2017-07-12T04:35:41.832Z,85.60
2017-07-12T04:38:10.885Z,85.67
2017-07-12T04:40:40.739Z,86.00
2017-07-12T04:43:10.610Z,85.77
2017-07-12T04:45:39.644Z,85.72
2017-07-12T04:48:09.482Z,85.91
2017-07-12T04:50:38.548Z,86.81
2017-07-12T04:53:08.424Z,86.58
2017-07-12T04:55:37.481Z,86.90
2017-07-12T04:58:06.554Z,86.54
2017-07-12T05:00:35.625Z,86.55
2017-07-12T05:03:04.678Z,87.08
2017-07-12T05:05:34.861Z,86.84
2017-07-12T05:08:03.905Z,87.07
2017-07-12T05:10:33.053Z,86.82
2017-07-12T05:13:02.163Z,86.78
2017-07-12T05:15:31.200Z,86.86
2017-07-12T05:18:00.254Z,86.79
2017-07-12T05:20:30.060Z,86.80
2017-07-12T05:23:01.275Z,86.85
2017-07-12T05:25:30.352Z,87.14
2017-07-12T05:27:59.408Z,87.18
2017-07-12T05:30:28.471Z,86.99
2017-07-12T05:32:57.559Z,87.08
2017-07-12T05:35:26.625Z,87.05
2017-07-12T05:37:55.974Z,87.58
2017-07-12T05:40:25.939Z,87.19
2017-07-12T05:42:54.996Z,86.63
2017-07-12T05:45:24.416Z,86.61
2017-07-12T05:47:53.467Z,86.65
2017-07-12T05:50:22.542Z,87.01
2017-07-12T05:52:52.300Z,87.07
2017-07-12T05:55:21.434Z,86.38
2017-07-12T05:57:50.648Z,86.68
2017-07-12T06:00:19.745Z,86.83
2017-07-12T06:02:48.832Z,86.84
2017-07-12T06:05:17.904Z,87.08
2017-07-12T06:07:46.944Z,87.28
2017-07-12T06:10:16.020Z,87.31
2017-07-12T06:12:45.125Z,87.49
2017-07-12T06:15:15.053Z,87.86
2017-07-12T06:17:44.877Z,87.72
2017-07-12T06:20:13.960Z,87.48
2017-07-12T06:22:43.030Z,87.55
2017-07-12T06:25:12.116Z,87.63
2017-07-12T06:27:41.223Z,87.07
2017-07-12T06:30:10.289Z,87.07
2017-07-12T06:32:39.355Z,87.41
2017-07-12T06:35:08.416Z,87.62
2017-07-12T06:37:37.503Z,87.88
2017-07-12T06:40:06.537Z,87.34
2017-07-12T06:42:36.361Z,88.19
2017-07-12T06:45:05.444Z,88.46
2017-07-12T06:47:35.269Z,88.26
2017-07-12T06:50:04.323Z,88.00
2017-07-12T06:52:34.929Z,87.85
2017-07-12T06:55:03.973Z,87.53
2017-07-12T06:57:33.792Z,87.40
2017-07-12T07:00:03.652Z,88.11
2017-07-12T07:02:32.718Z,87.50
2017-07-12T07:05:01.845Z,87.26
2017-07-12T07:07:30.889Z,87.09
2017-07-12T07:09:59.969Z,86.87
2017-07-12T07:12:29.044Z,86.29
2017-07-12T07:14:58.085Z,87.21
2017-07-12T07:17:27.885Z,87.17
2017-07-12T07:19:56.976Z,87.01
2017-07-12T07:22:26.812Z,87.25
2017-07-12T07:24:55.905Z,87.59
2017-07-12T07:27:24.929Z,87.21
2017-07-12T07:29:54.004Z,87.15
2017-07-12T07:32:23.069Z,87.30
2017-07-12T07:34:52.891Z,88.00
2017-07-12T07:37:21.967Z,88.68
2017-07-12T07:39:51.005Z,88.13
2017-07-12T07:42:20.077Z,88.46
2017-07-12T07:44:49.896Z,88.42
2017-07-12T07:47:18.966Z,88.35
2017-07-12T07:49:48.807Z,88.59
2017-07-12T07:52:17.849Z,88.05
2017-07-12T07:54:46.949Z,87.91
2017-07-12T07:57:16.009Z,88.15
2017-07-12T07:59:45.097Z,88.25
2017-07-12T08:02:14.174Z,88.03
2017-07-12T08:04:43.653Z,88.17
2017-07-12T08:07:12.718Z,87.76
2017-07-12T08:09:41.785Z,87.42
2017-07-12T08:12:10.873Z,87.40
2017-07-12T08:14:39.988Z,87.10
2017-07-12T08:17:09.290Z,86.85
2017-07-12T08:19:39.181Z,87.60
2017-07-12T08:22:08.845Z,87.58
2017-07-12T08:24:37.888Z,88.05
2017-07-12T08:27:06.927Z,88.11
2017-07-12T08:29:36.012Z,87.53
2017-07-12T08:32:05.043Z,87.19
2017-07-12T08:34:34.897Z,87.12
2017-07-12T08:37:03.958Z,88.07
2017-07-12T08:39:34.222Z,87.45
2017-07-12T08:42:03.321Z,87.99
2017-07-12T08:44:32.408Z,87.82
2017-07-12T08:47:01.462Z,87.68
2017-07-12T08:49:31.276Z,87.55
2017-07-12T08:52:00.326Z,87.32
2017-07-12T08:54:29.376Z,87.27
2017-07-12T08:56:58.440Z,86.98
2017-07-12T08:59:27.506Z,86.32
2017-07-12T09:01:56.545Z,86.68
2017-07-12T09:04:25.653Z,86.20
2017-07-12T09:06:55.487Z,86.38
2017-07-12T09:09:24.549Z,86.69
2017-07-12T09:11:53.622Z,87.17
2017-07-12T09:14:22.709Z,86.64
2017-07-12T09:16:51.769Z,86.76
2017-07-12T09:19:21.107Z,86.80
2017-07-12T09:21:50.149Z,87.37
2017-07-12T09:34:16.013Z,86.59
2017-07-12T09:36:45.836Z,87.15
2017-07-12T09:39:15.660Z,87.00
2017-07-12T09:41:44.731Z,87.19
2017-07-12T09:44:13.805Z,87.08
2017-07-12T09:46:42.836Z,86.35
2017-07-12T09:49:12.700Z,86.46
2017-07-12T09:51:42.085Z,86.87
2017-07-12T09:54:11.261Z,86.87
2017-07-12T09:56:41.061Z,86.61
2017-07-12T09:59:10.991Z,87.09
2017-07-12T10:01:40.282Z,87.43
2017-07-12T10:04:10.104Z,87.45
2017-07-12T10:06:39.165Z,88.00
2017-07-12T10:09:08.208Z,88.04
2017-07-12T10:11:37.295Z,88.01
2017-07-12T10:14:06.500Z,88.51
2017-07-12T10:16:35.577Z,87.55
2017-07-12T10:19:04.612Z,88.00
2017-07-12T10:21:33.676Z,87.91
2017-07-12T10:24:02.739Z,87.42
2017-07-12T10:26:32.560Z,88.29
2017-07-12T10:29:02.373Z,88.55
2017-07-12T10:31:31.444Z,87.77
2017-07-12T10:34:00.509Z,87.85
2017-07-12T10:36:29.552Z,87.75
2017-07-12T10:38:58.600Z,87.59
2017-07-12T10:41:27.669Z,87.59
2017-07-12T10:43:56.757Z,88.89
2017-07-12T10:46:25.856Z,88.24
2017-07-12T10:48:54.919Z,88.75
2017-07-12T10:51:23.971Z,88.92
2017-07-12T10:53:53.009Z,88.65
2017-07-12T10:56:22.832Z,88.97
2017-07-12T10:58:51.907Z,88.73
2017-07-12T11:01:20.991Z,88.88
2017-07-12T11:03:50.069Z,88.79
2017-07-12T11:06:19.119Z,88.77
2017-07-12T11:08:48.928Z,89.34
2017-07-12T11:11:17.987Z,89.60
2017-07-12T11:13:47.016Z,89.64
2017-07-12T11:16:16.109Z,89.41
2017-07-12T11:18:45.953Z,89.67
2017-07-12T11:21:15.034Z,89.97
2017-07-12T11:23:44.115Z,89.85
2017-07-12T11:26:13.953Z,89.67
2017-07-12T11:28:42.991Z,89.28
2017-07-12T11:31:12.083Z,89.11
2017-07-12T11:33:41.120Z,89.10
2017-07-12T11:36:10.787Z,88.69
2017-07-12T11:38:39.838Z,89.25
2017-07-12T11:41:08.908Z,89.64
2017-07-12T11:43:38.728Z,89.56
2017-07-12T11:46:07.830Z,89.38
2017-07-12T11:48:36.909Z,89.57
2017-07-12T11:51:05.997Z,88.66
2017-07-12T11:53:35.023Z,89.38
2017-07-12T11:56:04.165Z,88.54
2017-07-12T11:58:33.224Z,89.34
2017-07-12T12:01:02.276Z,88.75
2017-07-12T12:03:32.109Z,89.21
2017-07-12T12:06:01.150Z,89.03
2017-07-12T12:08:30.232Z,89.07
2017-07-12T12:10:59.311Z,88.67
2017-07-12T12:13:28.353Z,88.64
2017-07-12T12:15:57.444Z,88.48
2017-07-12T12:18:26.496Z,88.64
2017-07-12T12:20:55.534Z,88.88
2017-07-12T12:23:24.628Z,88.49
2017-07-12T12:25:53.678Z,88.44
2017-07-12T12:28:22.750Z,88.17
2017-07-12T12:30:52.559Z,88.04
2017-07-12T12:33:22.416Z,87.74
2017-07-12T12:35:51.457Z,87.39
2017-07-12T12:38:21.308Z,87.13
2017-07-12T12:40:50.363Z,87.83
2017-07-12T12:43:19.424Z,88.22
2017-07-12T12:45:48.719Z,84.82
2017-07-12T12:48:17.780Z,88.64
2017-07-12T12:50:46.849Z,90.06
2017-07-12T12:53:16.681Z,92.85
2017-07-12T12:55:46.529Z,93.80
2017-07-12T12:58:15.628Z,93.90
2017-07-12T13:00:44.717Z,94.39
2017-07-12T13:03:13.780Z,94.09
2017-07-12T13:05:42.836Z,95.67
2017-07-12T13:08:12.132Z,95.61
2017-07-12T13:10:41.171Z,95.35
2017-07-12T13:13:10.245Z,95.47
2017-07-12T13:15:39.313Z,95.11
2017-07-12T13:18:09.216Z,95.56
2017-07-12T13:20:38.263Z,95.08
2017-07-12T13:23:07.327Z,94.58
2017-07-12T13:25:36.384Z,94.26
2017-07-12T13:28:05.503Z,94.57
2017-07-12T13:30:34.590Z,94.70
2017-07-12T13:33:03.756Z,94.10
2017-07-12T13:35:32.812Z,94.09
2017-07-12T13:38:01.850Z,94.26
2017-07-12T13:40:30.901Z,93.71
2017-07-12T13:42:59.962Z,93.95
2017-07-12T13:45:29.317Z,93.06
2017-07-12T13:47:58.437Z,94.32
2017-07-12T13:50:27.486Z,94.46
2017-07-12T13:52:56.625Z,94.18
2017-07-12T13:55:25.645Z,93.68
2017-07-12T13:57:54.700Z,92.87
2017-07-12T14:00:23.781Z,93.69
2017-07-12T14:02:53.608Z,94.14
2017-07-12T14:05:22.690Z,93.21
2017-07-12T14:07:52.550Z,93.78
2017-07-12T14:10:21.605Z,93.94
2017-07-12T14:12:51.445Z,91.95
2017-07-12T14:15:21.346Z,93.25
2017-07-12T14:17:50.397Z,91.46
2017-07-12T14:20:19.497Z,91.13
2017-07-12T14:22:48.577Z,90.42
2017-07-12T14:25:17.653Z,89.80
2017-07-12T14:27:46.696Z,91.06
2017-07-12T14:30:15.790Z,91.33
2017-07-12T14:32:44.825Z,92.66
2017-07-12T14:35:14.093Z,92.49
2017-07-12T14:37:43.265Z,92.54
2017-07-12T14:40:12.380Z,91.23
2017-07-12T14:42:41.489Z,91.76
2017-07-12T14:45:11.321Z,90.53
2017-07-12T14:47:40.390Z,90.70
2017-07-12T14:50:09.465Z,90.80
2017-07-12T14:52:38.974Z,91.09
2017-07-12T14:55:08.213Z,90.33
2017-07-12T14:57:37.285Z,88.51
2017-07-12T15:00:07.112Z,88.46
2017-07-12T15:02:36.167Z,88.22
2017-07-12T15:05:06.766Z,89.37
2017-07-12T15:07:35.828Z,87.40
2017-07-12T15:10:04.908Z,87.99
2017-07-12T15:12:33.945Z,89.37
2017-07-12T15:15:03.096Z,89.40
2017-07-12T15:17:32.128Z,89.70
2017-07-12T15:20:01.211Z,87.84
2017-07-12T15:22:31.185Z,89.29
2017-07-12T15:25:00.283Z,90.92
2017-07-12T15:27:29.354Z,88.91
2017-07-12T15:29:58.970Z,88.32
2017-07-12T15:32:28.047Z,91.60
2017-07-12T15:34:57.128Z,89.66
2017-07-12T15:37:26.201Z,90.66
2017-07-12T15:39:56.036Z,90.42
2017-07-12T15:42:25.101Z,90.89
2017-07-12T15:44:54.935Z,89.96
2017-07-12T15:47:23.978Z,88.72
2017-07-12T15:49:53.049Z,90.00
2017-07-12T15:52:22.098Z,89.15
2017-07-12T15:54:51.186Z,87.82
2017-07-12T15:57:20.246Z,90.16
2017-07-12T15:59:49.319Z,89.47
2017-07-12T16:02:19.252Z,90.62
2017-07-12T16:04:48.320Z,90.46
2017-07-12T16:07:17.366Z,88.98
2017-07-12T16:09:46.557Z,90.21
2017-07-12T16:12:15.652Z,88.27
2017-07-12T16:14:44.986Z,89.40
2017-07-12T16:17:14.792Z,89.25
2017-07-12T16:19:44.626Z,88.89
2017-07-12T16:22:13.692Z,88.10
2017-07-12T16:24:43.535Z,89.06
2017-07-12T16:27:12.612Z,86.81
2017-07-12T16:29:42.432Z,87.62
2017-07-12T16:32:11.545Z,86.62
2017-07-12T16:34:40.618Z,86.36
2017-07-12T16:37:10.462Z,86.55
2017-07-12T16:39:39.554Z,85.72
2017-07-12T16:42:08.608Z,85.67
2017-07-12T16:44:38.430Z,86.80
2017-07-12T16:47:08.678Z,87.06
2017-07-12T16:49:38.493Z,86.79
2017-07-12T16:52:07.568Z,86.67
2017-07-12T16:54:36.685Z,88.28
2017-07-12T16:57:05.769Z,88.49
2017-07-12T16:59:34.903Z,84.93
2017-07-12T17:02:04.692Z,86.41
2017-07-12T17:04:33.752Z,85.78
2017-07-12T17:07:03.576Z,84.93
2017-07-12T17:09:32.674Z,86.65
2017-07-12T17:12:01.897Z,85.26
2017-07-12T17:14:32.390Z,84.00
2017-07-12T17:17:01.461Z,83.99
2017-07-12T17:19:30.578Z,84.45
2017-07-12T17:21:59.626Z,81.89
2017-07-12T17:24:28.718Z,82.08
2017-07-12T17:26:57.785Z,81.82
2017-07-12T17:29:26.841Z,81.21
2017-07-12T17:31:56.151Z,82.61
2017-07-12T17:34:25.220Z,80.21
2017-07-12T17:36:54.307Z,81.33
2017-07-12T17:39:23.381Z,81.08
2017-07-12T17:41:52.455Z,80.49
2017-07-12T17:44:21.969Z,79.94
2017-07-12T17:46:51.017Z,80.59
2017-07-12T17:49:20.095Z,80.75
2017-07-12T17:51:49.165Z,80.35
2017-07-12T17:54:18.501Z,79.00
2017-07-12T17:56:47.906Z,81.77
2017-07-12T17:59:16.976Z,78.76
2017-07-12T18:01:46.028Z,79.35
2017-07-12T18:04:15.896Z,79.19
2017-07-12T18:06:44.998Z,79.00
2017-07-12T18:09:14.093Z,80.00
2017-07-12T18:11:43.166Z,79.38
2017-07-12T18:14:12.244Z,81.08
2017-07-12T18:16:41.330Z,79.80
2017-07-12T18:19:10.406Z,79.62
2017-07-12T18:21:40.264Z,77.64
2017-07-12T18:24:09.309Z,78.56
2017-07-12T18:26:39.188Z,77.95
2017-07-12T18:29:08.305Z,74.68
2017-07-12T18:31:37.380Z,73.85
2017-07-12T18:34:06.437Z,73.57
2017-07-12T18:36:35.500Z,72.94
2017-07-12T18:39:05.405Z,73.48
2017-07-12T18:41:34.436Z,73.75
2017-07-12T18:44:03.522Z,72.54
2017-07-12T18:46:32.600Z,73.36
2017-07-12T18:49:02.412Z,72.15
2017-07-12T18:51:32.357Z,73.91
2017-07-12T18:54:01.436Z,72.02
2017-07-12T18:56:31.264Z,71.18
2017-07-12T18:59:00.328Z,72.52
2017-07-12T19:01:30.160Z,72.04
2017-07-12T19:03:59.230Z,72.45
2017-07-12T19:06:28.321Z,72.36
2017-07-12T19:08:57.386Z,72.18
2017-07-12T19:11:26.440Z,73.07
2017-07-12T19:13:56.269Z,73.67
2017-07-12T19:16:25.348Z,72.50
2017-07-12T19:18:54.412Z,74.33
2017-07-12T19:21:23.504Z,73.69
2017-07-12T19:23:52.581Z,72.78
2017-07-12T19:26:21.653Z,75.80
2017-07-12T19:28:50.729Z,76.77
2017-07-12T19:31:19.810Z,76.57
2017-07-12T19:33:48.950Z,75.18
2017-07-12T19:36:18.048Z,74.94
2017-07-12T19:38:47.125Z,76.56
2017-07-12T19:41:16.211Z,76.29
2017-07-12T19:43:45.281Z,75.54
2017-07-12T19:46:14.745Z,77.29
2017-07-12T19:48:43.840Z,77.65
2017-07-12T19:51:13.254Z,78.45
2017-07-12T19:53:42.358Z,78.61
2017-07-12T19:56:11.507Z,79.33
2017-07-12T19:58:40.749Z,77.96
2017-07-12T20:01:10.592Z,79.11
2017-07-12T20:03:39.850Z,80.32
2017-07-12T20:06:08.917Z,80.95
2017-07-12T20:08:38.000Z,81.31
2017-07-12T20:11:07.068Z,81.41
2017-07-12T20:13:36.363Z,81.92
2017-07-12T20:16:05.403Z,81.45
2017-07-12T20:18:34.478Z,81.58
2017-07-12T20:21:03.606Z,80.83
2017-07-12T20:23:33.482Z,80.03
2017-07-12T20:26:02.469Z,78.82
2017-07-12T20:28:32.356Z,76.89
2017-07-12T20:31:01.424Z,77.25
2017-07-12T20:33:30.484Z,78.45
2017-07-12T20:35:59.574Z,79.37
2017-07-12T20:38:29.409Z,79.38
2017-07-12T20:40:58.463Z,79.10
2017-07-12T20:43:27.545Z,79.34
2017-07-12T20:45:56.601Z,79.79
2017-07-12T20:48:25.685Z,77.69
2017-07-12T20:50:54.738Z,79.44
2017-07-12T20:53:23.808Z,78.60
2017-07-12T20:55:52.881Z,78.55
2017-07-12T20:58:21.926Z,78.90
2017-07-12T21:00:50.994Z,78.76
2017-07-12T21:03:20.055Z,78.24
2017-07-12T21:05:49.116Z,80.22
2017-07-12T21:08:18.929Z,78.20
2017-07-12T21:10:48.108Z,79.65
2017-07-12T21:13:17.612Z,80.00
2017-07-12T21:15:46.675Z,80.28
2017-07-12T21:18:15.777Z,80.79
2017-07-12T21:20:44.855Z,81.09
2017-07-12T21:23:13.980Z,81.67
2017-07-12T21:25:43.077Z,81.81
2017-07-12T21:28:12.113Z,82.28
2017-07-12T21:30:41.950Z,82.54
2017-07-12T21:33:11.023Z,82.96
2017-07-12T21:35:40.841Z,82.77
2017-07-12T21:38:09.915Z,82.72
2017-07-12T21:40:39.812Z,82.60
2017-07-12T21:43:08.873Z,83.38
2017-07-12T21:45:37.958Z,83.07
2017-07-12T21:48:07.030Z,83.39
2017-07-12T21:50:36.072Z,83.63
2017-07-12T21:53:20.214Z,83.97
2017-07-12T21:56:12.539Z,84.11
2017-07-12T21:59:05.176Z,84.25
2017-07-12T22:01:57.729Z,83.40
2017-07-12T22:04:50.336Z,83.97
2017-07-12T22:07:42.948Z,84.39
2017-07-12T22:10:35.246Z,84.15
2017-07-12T22:13:27.530Z,84.38
2017-07-12T22:16:19.800Z,84.11
2017-07-12T22:19:12.261Z,84.36
2017-07-12T22:22:04.669Z,83.54
2017-07-12T22:24:56.999Z,82.99
2017-07-12T22:27:49.307Z,84.63
2017-07-12T22:30:41.728Z,83.60
2017-07-12T22:33:34.022Z,83.40
2017-07-12T22:36:26.357Z,83.98
2017-07-12T22:39:00.888Z,83.86
2017-07-12T22:41:35.493Z,84.77
2017-07-12T22:44:03.882Z,84.78
2017-07-12T22:46:32.964Z,84.46
2017-07-12T22:49:02.072Z,84.51
2017-07-12T22:51:31.135Z,84.05
2017-07-12T22:54:00.192Z,84.45
2017-07-12T22:56:29.281Z,84.79
2017-07-12T22:58:58.348Z,84.56
2017-07-12T23:01:28.055Z,84.91
2017-07-12T23:03:57.107Z,84.24
2017-07-12T23:06:26.972Z,84.97
2017-07-12T23:08:56.039Z,84.95
2017-07-12T23:11:25.127Z,85.28
2017-07-12T23:13:54.185Z,85.00
2017-07-12T23:16:23.246Z,84.99
2017-07-12T23:18:52.307Z,84.92
2017-07-12T23:21:21.361Z,84.71
2017-07-12T23:23:50.447Z,85.50
2017-07-12T23:26:19.580Z,85.69
2017-07-12T23:28:49.407Z,85.78
2017-07-12T23:31:18.465Z,85.27
2017-07-12T23:33:47.528Z,85.64
2017-07-12T23:36:16.595Z,85.86
2017-07-12T23:38:45.650Z,85.75
2017-07-12T23:41:14.749Z,85.54
2017-07-12T23:43:43.830Z,85.47
2017-07-12T23:46:12.899Z,85.97
2017-07-12T23:48:41.959Z,85.42
2017-07-12T23:51:11.054Z,85.14
2017-07-12T23:53:40.138Z,85.42
2017-07-12T23:56:09.953Z,85.43
2017-07-12T23:58:39.013Z,85.31
